createdAt,value
2023-03-08T00:03:31.304Z,22
2023-03-08T00:13:37.454Z,18
2023-03-08T00:23:44.462Z,20
2023-03-08T00:33:50.635Z,20
2023-03-08T00:43:54.503Z,20
2023-03-08T00:54:00.394Z,20
2023-03-08T01:04:05.880Z,21
2023-03-08T01:14:12.272Z,23
2023-03-08T01:24:18.975Z,20
2023-03-08T01:34:24.981Z,22
2023-03-08T01:44:32.167Z,24
2023-03-08T01:54:38.265Z,22
2023-03-08T02:04:42.248Z,20
2023-03-08T02:14:48.368Z,22
2023-03-08T02:24:54.620Z,21
2023-03-08T02:35:00.823Z,22
2023-03-08T02:45:07.402Z,21
2023-03-08T02:55:13.348Z,23
2023-03-08T03:05:17.810Z,21
2023-03-08T03:15:23.897Z,21
2023-03-08T03:25:30.588Z,23
2023-03-08T03:35:36.294Z,23
2023-03-08T03:45:41.965Z,20
2023-03-08T03:55:49.045Z,21
2023-03-08T04:05:53.414Z,23
2023-03-08T04:15:58.910Z,22
2023-03-08T04:26:03.218Z,21
2023-03-08T04:36:08.887Z,21
2023-03-08T04:46:14.753Z,21
2023-03-08T04:56:20.484Z,20
2023-03-08T05:06:27.188Z,20
2023-03-08T05:16:35.693Z,20
2023-03-08T05:26:42.107Z,23
2023-03-08T05:36:47.117Z,22
2023-03-08T05:46:52.117Z,22
2023-03-08T05:56:57.495Z,24
2023-03-08T06:07:06.025Z,22
2023-03-08T06:17:10.250Z,22
2023-03-08T06:27:18.537Z,22
2023-03-08T06:37:26.522Z,21
2023-03-08T06:47:31.669Z,20
2023-03-08T06:57:37.945Z,20
2023-03-08T07:07:44.823Z,24
2023-03-08T07:17:50.787Z,22
2023-03-08T07:27:57.758Z,21
2023-03-08T07:38:03.186Z,23
2023-03-08T07:48:09.319Z,24
2023-03-08T07:58:15.505Z,22
2023-03-08T08:08:20.129Z,30
2023-03-08T08:18:26.454Z,21
2023-03-08T08:28:31.270Z,20
2023-03-08T08:38:36.988Z,40
2023-03-08T08:48:42.509Z,25
2023-03-08T08:58:48.534Z,23
2023-03-08T09:08:54.351Z,20
2023-03-08T09:19:01.747Z,21
2023-03-08T09:29:05.766Z,20
2023-03-08T09:39:10.286Z,22
2023-03-08T09:49:16.302Z,19
2023-03-08T09:59:20.075Z,20
2023-03-08T10:09:25.374Z,18
2023-03-08T10:19:30.555Z,19
2023-03-08T10:29:35.272Z,22
2023-03-08T10:39:41.787Z,21
2023-03-08T10:49:47.124Z,19
2023-03-08T10:59:54.315Z,17
2023-03-08T11:09:57.271Z,17
2023-03-08T11:20:03.900Z,15
2023-03-08T11:30:10.666Z,18
2023-03-08T11:40:13.671Z,17
2023-03-08T11:50:18.333Z,16
2023-03-08T12:00:24.829Z,19
2023-03-08T12:10:29.903Z,35
2023-03-08T12:20:34.854Z,21
2023-03-08T12:30:41.695Z,10
2023-03-08T12:40:48.031Z,11
2023-03-08T12:50:51.971Z,8
2023-03-08T13:00:58.431Z,3
2023-03-08T13:11:04.611Z,4
2023-03-08T13:21:12.950Z,5
2023-03-08T13:31:19.379Z,4
2023-03-08T13:41:23.918Z,4
2023-03-08T13:51:30.572Z,3
2023-03-08T14:01:39.100Z,4
2023-03-08T14:11:43.680Z,4
2023-03-08T14:21:50.102Z,5
2023-03-08T14:31:54.188Z,3
2023-03-08T14:41:59.028Z,7
2023-03-08T14:52:05.232Z,3
2023-03-08T15:02:12.285Z,4
2023-03-08T15:12:20.191Z,4
2023-03-08T15:22:25.341Z,4
2023-03-08T15:32:29.656Z,11
2023-03-08T15:42:32.997Z,4
2023-03-08T15:52:40.175Z,8
2023-03-08T16:02:47.486Z,7
2023-03-08T16:12:52.298Z,8
2023-03-08T16:22:59.986Z,6
2023-03-08T16:33:02.238Z,83
2023-03-08T16:43:06.889Z,56
2023-03-08T16:53:12.315Z,58
2023-03-08T17:03:22.087Z,30
2023-03-08T17:13:24.162Z,8
2023-03-08T17:23:30.362Z,8
2023-03-08T17:33:35.182Z,18
2023-03-08T17:43:41.894Z,31
2023-03-08T17:53:46.514Z,36
2023-03-08T18:03:51.698Z,28
2023-03-08T18:13:55.200Z,5
2023-03-08T18:23:59.276Z,6
2023-03-08T18:34:05.439Z,9
2023-03-08T18:44:12.630Z,6
2023-03-08T18:54:19.228Z,7
2023-03-08T19:04:25.103Z,6
2023-03-08T19:14:31.080Z,11
2023-03-08T19:24:35.433Z,17
2023-03-08T19:34:40.712Z,10
2023-03-08T19:44:46.286Z,13
2023-03-08T19:54:52.442Z,15
2023-03-08T20:04:58.108Z,10
2023-03-08T20:15:03.632Z,7
2023-03-08T20:25:08.080Z,5
2023-03-08T20:35:14.795Z,5
2023-03-08T20:45:20.312Z,7
2023-03-08T20:55:25.271Z,7
2023-03-08T21:05:31.018Z,9
2023-03-08T21:15:36.284Z,6
2023-03-08T21:25:39.950Z,8
2023-03-08T21:35:44.261Z,9
2023-03-08T21:45:48.936Z,5
2023-03-08T21:55:54.027Z,5
2023-03-08T22:05:58.720Z,6
2023-03-08T22:16:03.162Z,6
2023-03-08T22:26:08.160Z,5
2023-03-08T22:36:13.406Z,4
2023-03-08T22:46:18.851Z,10
2023-03-08T22:56:22.566Z,6
2023-03-08T23:06:28.994Z,5
2023-03-08T23:16:35.111Z,4
2023-03-08T23:26:41.465Z,4
2023-03-08T23:36:47.322Z,5
2023-03-08T23:46:53.760Z,4
2023-03-08T23:56:59.271Z,4
